sensor_id;sensor_type;location;lat;lon;timestamp;temperature;humidity
3001;DHT22;1510;51.072;6.678;2022-08-30T00:02:17;16.90;30.20
3001;DHT22;1510;51.072;6.678;2022-08-30T00:04:45;16.90;30.30
3001;DHT22;1510;51.072;6.678;2022-08-30T00:07:12;16.90;30.60
3001;DHT22;1510;51.072;6.678;2022-08-30T00:09:40;16.90;30.80
3001;DHT22;1510;51.072;6.678;2022-08-30T00:12:07;17.00;30.50
3001;DHT22;1510;51.072;6.678;2022-08-30T00:14:34;17.00;31.70
3001;DHT22;1510;51.072;6.678;2022-08-30T00:17:01;17.00;32.40
3001;DHT22;1510;51.072;6.678;2022-08-30T00:19:27;17.00;32.50
3001;DHT22;1510;51.072;6.678;2022-08-30T00:21:54;17.10;31.60
3001;DHT22;1510;51.072;6.678;2022-08-30T00:24:21;17.30;31.40
3001;DHT22;1510;51.072;6.678;2022-08-30T00:26:49;17.30;30.90
3001;DHT22;1510;51.072;6.678;2022-08-30T00:29:15;17.10;31.20
3001;DHT22;1510;51.072;6.678;2022-08-30T00:31:42;17.10;31.80
3001;DHT22;1510;51.072;6.678;2022-08-30T00:34:09;17.20;31.70
3001;DHT22;1510;51.072;6.678;2022-08-30T00:36:36;17.30;32.30
3001;DHT22;1510;51.072;6.678;2022-08-30T00:39:03;17.00;32.50
3001;DHT22;1510;51.072;6.678;2022-08-30T00:41:41;17.00;33.20
3001;DHT22;1510;51.072;6.678;2022-08-30T00:44:15;17.10;34.40
3001;DHT22;1510;51.072;6.678;2022-08-30T00:46:42;17.00;34.20
3001;DHT22;1510;51.072;6.678;2022-08-30T00:49:11;17.00;33.50
3001;DHT22;1510;51.072;6.678;2022-08-30T00:51:43;16.90;34.00
3001;DHT22;1510;51.072;6.678;2022-08-30T00:54:18;16.90;35.00
3001;DHT22;1510;51.072;6.678;2022-08-30T00:56:45;16.90;34.80
3001;DHT22;1510;51.072;6.678;2022-08-30T00:59:14;17.00;34.80
3001;DHT22;1510;51.072;6.678;2022-08-30T01:01:41;17.10;35.40
3001;DHT22;1510;51.072;6.678;2022-08-30T01:04:09;17.10;34.70
3001;DHT22;1510;51.072;6.678;2022-08-30T01:06:38;16.90;35.50
3001;DHT22;1510;51.072;6.678;2022-08-30T01:09:06;16.90;36.10
3001;DHT22;1510;51.072;6.678;2022-08-30T01:11:35;16.80;36.80
3001;DHT22;1510;51.072;6.678;2022-08-30T01:14:03;16.50;37.30
3001;DHT22;1510;51.072;6.678;2022-08-30T01:16:33;16.50;38.00
3001;DHT22;1510;51.072;6.678;2022-08-30T01:19:00;16.60;39.10
3001;DHT22;1510;51.072;6.678;2022-08-30T01:21:33;16.60;39.70
3001;DHT22;1510;51.072;6.678;2022-08-30T01:24:04;16.70;39.00
3001;DHT22;1510;51.072;6.678;2022-08-30T01:26:32;16.90;38.10
3001;DHT22;1510;51.072;6.678;2022-08-30T01:29:04;16.90;37.00
3001;DHT22;1510;51.072;6.678;2022-08-30T01:31:32;16.90;37.60
3001;DHT22;1510;51.072;6.678;2022-08-30T01:34:00;16.90;38.40
3001;DHT22;1510;51.072;6.678;2022-08-30T01:36:27;16.90;38.00
3001;DHT22;1510;51.072;6.678;2022-08-30T01:38:56;17.00;38.50
3001;DHT22;1510;51.072;6.678;2022-08-30T01:41:26;16.80;38.80
3001;DHT22;1510;51.072;6.678;2022-08-30T01:43:57;16.80;39.90
3001;DHT22;1510;51.072;6.678;2022-08-30T01:46:28;16.80;40.80
3001;DHT22;1510;51.072;6.678;2022-08-30T01:48:56;16.70;41.30
3001;DHT22;1510;51.072;6.678;2022-08-30T01:51:25;16.50;41.10
3001;DHT22;1510;51.072;6.678;2022-08-30T01:53:53;16.40;41.00
3001;DHT22;1510;51.072;6.678;2022-08-30T01:56:20;16.30;41.70
3001;DHT22;1510;51.072;6.678;2022-08-30T01:58:49;16.20;43.80
3001;DHT22;1510;51.072;6.678;2022-08-30T02:01:17;16.20;44.50
3001;DHT22;1510;51.072;6.678;2022-08-30T02:03:45;16.30;45.60
3001;DHT22;1510;51.072;6.678;2022-08-30T02:06:16;16.20;44.60
3001;DHT22;1510;51.072;6.678;2022-08-30T02:08:45;16.10;45.00
3001;DHT22;1510;51.072;6.678;2022-08-30T02:11:13;16.10;46.60
3001;DHT22;1510;51.072;6.678;2022-08-30T02:13:42;16.10;46.70
3001;DHT22;1510;51.072;6.678;2022-08-30T02:16:13;16.00;47.90
3001;DHT22;1510;51.072;6.678;2022-08-30T02:18:40;15.80;48.20
3001;DHT22;1510;51.072;6.678;2022-08-30T02:21:07;15.70;49.20
3001;DHT22;1510;51.072;6.678;2022-08-30T02:23:35;15.70;50.50
3001;DHT22;1510;51.072;6.678;2022-08-30T02:26:01;15.70;51.50
3001;DHT22;1510;51.072;6.678;2022-08-30T02:28:28;15.60;50.80
3001;DHT22;1510;51.072;6.678;2022-08-30T02:30:55;15.60;51.90
3001;DHT22;1510;51.072;6.678;2022-08-30T02:33:23;15.60;52.70
3001;DHT22;1510;51.072;6.678;2022-08-30T02:35:50;15.60;53.70
3001;DHT22;1510;51.072;6.678;2022-08-30T02:38:17;15.60;54.20
3001;DHT22;1510;51.072;6.678;2022-08-30T02:40:44;15.40;54.70
3001;DHT22;1510;51.072;6.678;2022-08-30T02:43:11;15.40;54.70
3001;DHT22;1510;51.072;6.678;2022-08-30T02:45:37;15.20;55.40
3001;DHT22;1510;51.072;6.678;2022-08-30T02:48:04;15.30;57.50
3001;DHT22;1510;51.072;6.678;2022-08-30T02:50:32;15.20;58.30
3001;DHT22;1510;51.072;6.678;2022-08-30T02:52:59;15.10;59.50
3001;DHT22;1510;51.072;6.678;2022-08-30T02:55:26;15.10;60.60
3001;DHT22;1510;51.072;6.678;2022-08-30T02:57:53;15.20;61.20
3001;DHT22;1510;51.072;6.678;2022-08-30T03:00:20;15.10;61.00
3001;DHT22;1510;51.072;6.678;2022-08-30T03:02:46;15.10;61.90
3001;DHT22;1510;51.072;6.678;2022-08-30T03:05:14;15.20;61.50
3001;DHT22;1510;51.072;6.678;2022-08-30T03:07:43;15.10;60.90
3001;DHT22;1510;51.072;6.678;2022-08-30T03:10:13;15.20;61.00
3001;DHT22;1510;51.072;6.678;2022-08-30T03:12:40;15.30;61.60
3001;DHT22;1510;51.072;6.678;2022-08-30T03:15:08;15.40;62.10
3001;DHT22;1510;51.072;6.678;2022-08-30T03:17:36;15.50;61.80
3001;DHT22;1510;51.072;6.678;2022-08-30T03:20:04;15.40;62.00
3001;DHT22;1510;51.072;6.678;2022-08-30T03:22:32;15.60;61.90
3001;DHT22;1510;51.072;6.678;2022-08-30T03:25:00;15.60;62.00
3001;DHT22;1510;51.072;6.678;2022-08-30T03:27:28;15.70;62.10
3001;DHT22;1510;51.072;6.678;2022-08-30T03:29:55;15.60;61.90
3001;DHT22;1510;51.072;6.678;2022-08-30T03:32:22;15.70;61.70
3001;DHT22;1510;51.072;6.678;2022-08-30T03:34:49;15.60;61.50
3001;DHT22;1510;51.072;6.678;2022-08-30T03:37:16;15.50;61.80
3001;DHT22;1510;51.072;6.678;2022-08-30T03:39:44;15.50;63.00
3001;DHT22;1510;51.072;6.678;2022-08-30T03:42:12;15.40;64.30
3001;DHT22;1510;51.072;6.678;2022-08-30T03:44:39;15.30;63.50
3001;DHT22;1510;51.072;6.678;2022-08-30T03:47:06;15.10;65.10
3001;DHT22;1510;51.072;6.678;2022-08-30T03:49:33;15.00;65.50
3001;DHT22;1510;51.072;6.678;2022-08-30T03:52:00;14.90;66.90
3001;DHT22;1510;51.072;6.678;2022-08-30T03:54:27;14.80;67.70
3001;DHT22;1510;51.072;6.678;2022-08-30T03:56:53;14.80;69.50
3001;DHT22;1510;51.072;6.678;2022-08-30T03:59:22;14.70;70.30
3001;DHT22;1510;51.072;6.678;2022-08-30T04:01:48;14.80;71.90
3001;DHT22;1510;51.072;6.678;2022-08-30T04:04:15;14.60;73.20
3001;DHT22;1510;51.072;6.678;2022-08-30T04:06:42;14.70;76.40
3001;DHT22;1510;51.072;6.678;2022-08-30T04:09:09;14.70;73.40
3001;DHT22;1510;51.072;6.678;2022-08-30T04:11:36;14.60;72.30
3001;DHT22;1510;51.072;6.678;2022-08-30T04:14:03;14.60;70.70
3001;DHT22;1510;51.072;6.678;2022-08-30T04:16:31;14.60;71.90
3001;DHT22;1510;51.072;6.678;2022-08-30T04:18:58;14.60;72.90
3001;DHT22;1510;51.072;6.678;2022-08-30T04:21:24;14.60;73.30
3001;DHT22;1510;51.072;6.678;2022-08-30T04:23:51;14.50;73.90
3001;DHT22;1510;51.072;6.678;2022-08-30T04:26:18;14.50;75.70
3001;DHT22;1510;51.072;6.678;2022-08-30T04:28:45;14.50;78.40
3001;DHT22;1510;51.072;6.678;2022-08-30T04:31:14;14.60;81.10
3001;DHT22;1510;51.072;6.678;2022-08-30T04:33:42;14.60;81.20
3001;DHT22;1510;51.072;6.678;2022-08-30T04:36:10;14.60;80.20
3001;DHT22;1510;51.072;6.678;2022-08-30T04:38:40;14.60;81.80
3001;DHT22;1510;51.072;6.678;2022-08-30T04:41:09;14.70;81.80
3001;DHT22;1510;51.072;6.678;2022-08-30T04:43:37;14.70;81.20
3001;DHT22;1510;51.072;6.678;2022-08-30T04:46:04;14.70;80.50
3001;DHT22;1510;51.072;6.678;2022-08-30T04:48:32;14.60;79.00
3001;DHT22;1510;51.072;6.678;2022-08-30T04:51:02;14.70;80.50
3001;DHT22;1510;51.072;6.678;2022-08-30T04:53:29;14.60;81.20
3001;DHT22;1510;51.072;6.678;2022-08-30T04:55:56;14.60;81.10
3001;DHT22;1510;51.072;6.678;2022-08-30T04:58:23;14.60;81.10
3001;DHT22;1510;51.072;6.678;2022-08-30T05:00:50;14.50;79.50
3001;DHT22;1510;51.072;6.678;2022-08-30T05:03:16;14.60;84.70
3001;DHT22;1510;51.072;6.678;2022-08-30T05:05:46;14.60;81.90
3001;DHT22;1510;51.072;6.678;2022-08-30T05:08:16;14.70;80.50
3001;DHT22;1510;51.072;6.678;2022-08-30T05:10:46;14.70;77.20
3001;DHT22;1510;51.072;6.678;2022-08-30T05:13:13;14.90;77.90
3001;DHT22;1510;51.072;6.678;2022-08-30T05:15:40;14.80;77.80
3001;DHT22;1510;51.072;6.678;2022-08-30T05:18:08;15.00;78.80
3001;DHT22;1510;51.072;6.678;2022-08-30T05:20:36;15.00;76.40
3001;DHT22;1510;51.072;6.678;2022-08-30T05:23:04;15.10;75.80
3001;DHT22;1510;51.072;6.678;2022-08-30T05:25:36;15.10;75.80
3001;DHT22;1510;51.072;6.678;2022-08-30T05:28:04;15.20;78.70
3001;DHT22;1510;51.072;6.678;2022-08-30T05:30:32;15.10;78.30
3001;DHT22;1510;51.072;6.678;2022-08-30T05:32:59;15.20;78.20
3001;DHT22;1510;51.072;6.678;2022-08-30T05:35:26;15.30;77.20
3001;DHT22;1510;51.072;6.678;2022-08-30T05:37:53;15.30;75.00
3001;DHT22;1510;51.072;6.678;2022-08-30T05:40:20;15.30;74.80
3001;DHT22;1510;51.072;6.678;2022-08-30T05:42:49;15.30;75.70
3001;DHT22;1510;51.072;6.678;2022-08-30T05:45:16;15.50;75.20
3001;DHT22;1510;51.072;6.678;2022-08-30T05:47:42;15.60;75.60
3001;DHT22;1510;51.072;6.678;2022-08-30T05:50:09;15.70;76.20
3001;DHT22;1510;51.072;6.678;2022-08-30T05:52:37;15.90;76.50
3001;DHT22;1510;51.072;6.678;2022-08-30T05:55:06;16.10;75.40
3001;DHT22;1510;51.072;6.678;2022-08-30T05:57:34;16.60;73.20
3001;DHT22;1510;51.072;6.678;2022-08-30T06:00:06;16.80;71.10
3001;DHT22;1510;51.072;6.678;2022-08-30T06:02:33;17.10;67.50
3001;DHT22;1510;51.072;6.678;2022-08-30T06:05:01;17.40;65.90
3001;DHT22;1510;51.072;6.678;2022-08-30T06:07:29;17.80;62.40
3001;DHT22;1510;51.072;6.678;2022-08-30T06:09:55;17.90;60.00
3001;DHT22;1510;51.072;6.678;2022-08-30T06:12:22;18.30;58.90
3001;DHT22;1510;51.072;6.678;2022-08-30T06:14:49;18.50;57.40
3001;DHT22;1510;51.072;6.678;2022-08-30T06:17:17;18.50;54.00
3001;DHT22;1510;51.072;6.678;2022-08-30T06:19:43;18.60;52.80
3001;DHT22;1510;51.072;6.678;2022-08-30T06:22:10;18.70;52.00
3001;DHT22;1510;51.072;6.678;2022-08-30T06:24:37;18.90;52.20
3001;DHT22;1510;51.072;6.678;2022-08-30T06:27:04;19.10;52.30
3001;DHT22;1510;51.072;6.678;2022-08-30T06:29:31;19.00;50.50
3001;DHT22;1510;51.072;6.678;2022-08-30T06:31:58;19.30;49.20
3001;DHT22;1510;51.072;6.678;2022-08-30T06:34:26;19.50;46.80
3001;DHT22;1510;51.072;6.678;2022-08-30T06:36:53;19.60;46.20
3001;DHT22;1510;51.072;6.678;2022-08-30T06:39:20;19.60;45.10
3001;DHT22;1510;51.072;6.678;2022-08-30T06:41:52;19.60;44.00
3001;DHT22;1510;51.072;6.678;2022-08-30T06:47:36;19.70;44.60
3001;DHT22;1510;51.072;6.678;2022-08-30T06:50:08;19.60;44.00
3001;DHT22;1510;51.072;6.678;2022-08-30T06:52:36;19.80;44.00
3001;DHT22;1510;51.072;6.678;2022-08-30T06:55:04;20.00;44.40
3001;DHT22;1510;51.072;6.678;2022-08-30T06:57:31;20.00;43.30
3001;DHT22;1510;51.072;6.678;2022-08-30T06:59:59;20.40;41.30
3001;DHT22;1510;51.072;6.678;2022-08-30T07:02:29;20.50;39.40
3001;DHT22;1510;51.072;6.678;2022-08-30T07:04:56;20.80;39.30
3001;DHT22;1510;51.072;6.678;2022-08-30T07:07:25;20.80;38.40
3001;DHT22;1510;51.072;6.678;2022-08-30T07:09:51;20.80;36.00
3001;DHT22;1510;51.072;6.678;2022-08-30T07:12:19;21.00;35.10
3001;DHT22;1510;51.072;6.678;2022-08-30T07:14:46;20.90;35.20
3001;DHT22;1510;51.072;6.678;2022-08-30T07:23:26;21.30;35.00
3001;DHT22;1510;51.072;6.678;2022-08-30T07:29:14;21.70;32.70
3001;DHT22;1510;51.072;6.678;2022-08-30T07:31:41;21.90;30.00
3001;DHT22;1510;51.072;6.678;2022-08-30T07:34:11;22.10;31.20
3001;DHT22;1510;51.072;6.678;2022-08-30T07:36:38;22.20;28.60
3001;DHT22;1510;51.072;6.678;2022-08-30T07:39:08;22.50;28.80
3001;DHT22;1510;51.072;6.678;2022-08-30T07:41:36;22.40;27.80
3001;DHT22;1510;51.072;6.678;2022-08-30T07:44:29;22.50;26.00
3001;DHT22;1510;51.072;6.678;2022-08-30T07:47:24;22.50;26.70
3001;DHT22;1510;51.072;6.678;2022-08-30T07:53:28;22.70;24.30
3001;DHT22;1510;51.072;6.678;2022-08-30T07:55:57;23.10;23.30
3001;DHT22;1510;51.072;6.678;2022-08-30T07:58:35;23.30;22.80
3001;DHT22;1510;51.072;6.678;2022-08-30T08:01:03;23.70;22.40
3001;DHT22;1510;51.072;6.678;2022-08-30T08:03:30;23.80;19.10
3001;DHT22;1510;51.072;6.678;2022-08-30T08:05:57;24.20;19.00
3001;DHT22;1510;51.072;6.678;2022-08-30T08:08:24;24.40;19.30
3001;DHT22;1510;51.072;6.678;2022-08-30T08:10:57;24.60;16.90
3001;DHT22;1510;51.072;6.678;2022-08-30T08:13:30;24.70;15.60
3001;DHT22;1510;51.072;6.678;2022-08-30T08:16:04;25.30;15.90
3001;DHT22;1510;51.072;6.678;2022-08-30T08:18:31;25.60;14.70
3001;DHT22;1510;51.072;6.678;2022-08-30T08:21:01;25.60;12.90
3001;DHT22;1510;51.072;6.678;2022-08-30T08:23:28;25.50;13.70
3001;DHT22;1510;51.072;6.678;2022-08-30T08:25:56;25.20;13.10
3001;DHT22;1510;51.072;6.678;2022-08-30T08:28:26;25.00;11.00
3001;DHT22;1510;51.072;6.678;2022-08-30T08:31:04;25.50;12.10
3001;DHT22;1510;51.072;6.678;2022-08-30T08:33:52;25.80;10.40
3001;DHT22;1510;51.072;6.678;2022-08-30T08:36:19;26.00;8.70
3001;DHT22;1510;51.072;6.678;2022-08-30T08:38:47;26.50;8.30
3001;DHT22;1510;51.072;6.678;2022-08-30T08:41:34;26.40;7.90
3001;DHT22;1510;51.072;6.678;2022-08-30T08:44:09;26.90;5.60
3001;DHT22;1510;51.072;6.678;2022-08-30T08:46:45;26.80;5.70
3001;DHT22;1510;51.072;6.678;2022-08-30T08:49:16;27.00;4.00
3001;DHT22;1510;51.072;6.678;2022-08-30T08:51:49;26.70;4.50
3001;DHT22;1510;51.072;6.678;2022-08-30T08:54:40;27.30;4.20
3001;DHT22;1510;51.072;6.678;2022-08-30T08:57:09;27.30;2.30
3001;DHT22;1510;51.072;6.678;2022-08-30T08:59:39;27.30;2.20
3001;DHT22;1510;51.072;6.678;2022-08-30T09:02:18;26.90;3.10
3001;DHT22;1510;51.072;6.678;2022-08-30T09:04:48;26.60;3.40
3001;DHT22;1510;51.072;6.678;2022-08-30T09:07:20;26.60;3.90
3001;DHT22;1510;51.072;6.678;2022-08-30T09:09:48;26.70;3.00
3001;DHT22;1510;51.072;6.678;2022-08-30T09:12:19;26.80;2.80
3001;DHT22;1510;51.072;6.678;2022-08-30T09:14:51;27.00;3.40
3001;DHT22;1510;51.072;6.678;2022-08-30T09:17:20;27.20;1.40
3001;DHT22;1510;51.072;6.678;2022-08-30T09:19:57;27.20;1.50
3001;DHT22;1510;51.072;6.678;2022-08-30T09:22:29;27.50;1.60
3001;DHT22;1510;51.072;6.678;2022-08-30T09:25:00;27.60;1.00
3001;DHT22;1510;51.072;6.678;2022-08-30T09:27:33;28.30;1.00
3001;DHT22;1510;51.072;6.678;2022-08-30T09:30:05;28.50;1.00
3001;DHT22;1510;51.072;6.678;2022-08-30T09:32:38;28.30;1.00
3001;DHT22;1510;51.072;6.678;2022-08-30T09:35:10;28.30;1.00
3001;DHT22;1510;51.072;6.678;2022-08-30T09:37:46;28.30;1.00
3001;DHT22;1510;51.072;6.678;2022-08-30T09:40:33;28.50;1.00
3001;DHT22;1510;51.072;6.678;2022-08-30T09:43:18;28.40;1.00
3001;DHT22;1510;51.072;6.678;2022-08-30T09:45:47;27.60;1.00
3001;DHT22;1510;51.072;6.678;2022-08-30T09:48:29;27.80;1.00
3001;DHT22;1510;51.072;6.678;2022-08-30T09:54:09;27.50;1.00
3001;DHT22;1510;51.072;6.678;2022-08-30T09:57:00;27.40;1.00
3001;DHT22;1510;51.072;6.678;2022-08-30T09:59:49;26.80;1.00
3001;DHT22;1510;51.072;6.678;2022-08-30T10:05:23;26.40;1.00
3001;DHT22;1510;51.072;6.678;2022-08-30T10:08:01;26.40;1.00
3001;DHT22;1510;51.072;6.678;2022-08-30T10:10:36;26.40;1.00
3001;DHT22;1510;51.072;6.678;2022-08-30T10:16:28;26.60;1.00
3001;DHT22;1510;51.072;6.678;2022-08-30T10:19:06;26.90;1.00
3001;DHT22;1510;51.072;6.678;2022-08-30T10:21:47;27.20;1.00
3001;DHT22;1510;51.072;6.678;2022-08-30T10:24:24;27.10;1.00
3001;DHT22;1510;51.072;6.678;2022-08-30T10:27:04;27.40;1.00
3001;DHT22;1510;51.072;6.678;2022-08-30T10:29:37;29.00;1.00
3001;DHT22;1510;51.072;6.678;2022-08-30T10:32:17;29.60;1.00
3001;DHT22;1510;51.072;6.678;2022-08-30T10:34:49;30.20;1.00
3001;DHT22;1510;51.072;6.678;2022-08-30T10:37:19;30.40;1.00
3001;DHT22;1510;51.072;6.678;2022-08-30T10:39:54;30.80;1.00
3001;DHT22;1510;51.072;6.678;2022-08-30T10:42:26;31.70;1.00
3001;DHT22;1510;51.072;6.678;2022-08-30T10:45:01;31.40;1.00
3001;DHT22;1510;51.072;6.678;2022-08-30T10:47:34;30.80;1.00
3001;DHT22;1510;51.072;6.678;2022-08-30T10:50:11;30.90;1.00
3001;DHT22;1510;51.072;6.678;2022-08-30T10:52:43;30.90;1.00
3001;DHT22;1510;51.072;6.678;2022-08-30T10:55:16;29.80;1.00
3001;DHT22;1510;51.072;6.678;2022-08-30T10:57:46;30.60;1.00
3001;DHT22;1510;51.072;6.678;2022-08-30T11:00:21;29.70;1.00
3001;DHT22;1510;51.072;6.678;2022-08-30T11:03:19;29.40;1.00
3001;DHT22;1510;51.072;6.678;2022-08-30T11:06:10;28.60;1.00
3001;DHT22;1510;51.072;6.678;2022-08-30T11:08:57;28.70;1.00
3001;DHT22;1510;51.072;6.678;2022-08-30T11:11:40;29.60;1.00
3001;DHT22;1510;51.072;6.678;2022-08-30T11:14:13;30.20;1.00
3001;DHT22;1510;51.072;6.678;2022-08-30T11:16:43;30.00;1.00
3001;DHT22;1510;51.072;6.678;2022-08-30T11:19:18;30.40;1.00
3001;DHT22;1510;51.072;6.678;2022-08-30T11:21:50;30.70;1.00
3001;DHT22;1510;51.072;6.678;2022-08-30T11:24:18;30.50;1.00
3001;DHT22;1510;51.072;6.678;2022-08-30T11:26:55;30.40;1.00
3001;DHT22;1510;51.072;6.678;2022-08-30T11:29:29;31.00;1.00
3001;DHT22;1510;51.072;6.678;2022-08-30T11:31:59;30.80;1.00
3001;DHT22;1510;51.072;6.678;2022-08-30T11:34:56;30.40;1.00
3001;DHT22;1510;51.072;6.678;2022-08-30T11:37:38;30.60;1.00
3001;DHT22;1510;51.072;6.678;2022-08-30T11:40:10;30.80;1.00
3001;DHT22;1510;51.072;6.678;2022-08-30T11:46:15;30.50;1.00
3001;DHT22;1510;51.072;6.678;2022-08-30T11:48:50;29.60;1.00
3001;DHT22;1510;51.072;6.678;2022-08-30T11:51:24;28.30;1.00
3001;DHT22;1510;51.072;6.678;2022-08-30T11:57:16;29.90;1.00
3001;DHT22;1510;51.072;6.678;2022-08-30T12:00:41;29.60;1.00
3001;DHT22;1510;51.072;6.678;2022-08-30T12:06:51;30.00;1.00
3001;DHT22;1510;51.072;6.678;2022-08-30T12:10:34;30.70;1.00
3001;DHT22;1510;51.072;6.678;2022-08-30T12:13:52;30.80;1.00
3001;DHT22;1510;51.072;6.678;2022-08-30T12:16:42;31.00;1.00
3001;DHT22;1510;51.072;6.678;2022-08-30T12:23:26;31.70;1.00
3001;DHT22;1510;51.072;6.678;2022-08-30T12:26:45;31.90;1.00
3001;DHT22;1510;51.072;6.678;2022-08-30T12:29:18;30.40;1.00
3001;DHT22;1510;51.072;6.678;2022-08-30T12:32:24;30.90;1.00
3001;DHT22;1510;51.072;6.678;2022-08-30T12:35:15;30.50;1.00
3001;DHT22;1510;51.072;6.678;2022-08-30T12:39:33;31.70;1.00
3001;DHT22;1510;51.072;6.678;2022-08-30T12:41:28;32.10;1.00
3001;DHT22;1510;51.072;6.678;2022-08-30T12:44:11;32.20;1.00
3001;DHT22;1510;51.072;6.678;2022-08-30T12:46:48;31.90;1.00
3001;DHT22;1510;51.072;6.678;2022-08-30T12:49:24;31.80;1.00
3001;DHT22;1510;51.072;6.678;2022-08-30T12:52:27;31.80;1.00
3001;DHT22;1510;51.072;6.678;2022-08-30T12:55:12;31.70;1.00
3001;DHT22;1510;51.072;6.678;2022-08-30T12:58:02;31.70;1.00
3001;DHT22;1510;51.072;6.678;2022-08-30T13:01:09;31.80;1.00
3001;DHT22;1510;51.072;6.678;2022-08-30T13:03:54;31.40;1.00
3001;DHT22;1510;51.072;6.678;2022-08-30T13:07:05;31.30;1.00
3001;DHT22;1510;51.072;6.678;2022-08-30T13:13:27;32.20;1.00
3001;DHT22;1510;51.072;6.678;2022-08-30T13:16:34;32.50;1.00
3001;DHT22;1510;51.072;6.678;2022-08-30T13:19:44;33.20;1.00
3001;DHT22;1510;51.072;6.678;2022-08-30T13:23:04;33.00;1.00
3001;DHT22;1510;51.072;6.678;2022-08-30T13:25:53;31.50;1.00
3001;DHT22;1510;51.072;6.678;2022-08-30T13:29:15;33.00;1.00
3001;DHT22;1510;51.072;6.678;2022-08-30T13:32:16;33.30;1.00
3001;DHT22;1510;51.072;6.678;2022-08-30T13:35:31;32.60;1.00
3001;DHT22;1510;51.072;6.678;2022-08-30T13:38:41;33.90;1.00
3001;DHT22;1510;51.072;6.678;2022-08-30T13:41:25;33.60;1.00
3001;DHT22;1510;51.072;6.678;2022-08-30T13:44:01;32.80;1.00
3001;DHT22;1510;51.072;6.678;2022-08-30T13:46:40;31.80;1.00
3001;DHT22;1510;51.072;6.678;2022-08-30T13:49:16;31.40;1.00
3001;DHT22;1510;51.072;6.678;2022-08-30T13:52:14;31.20;1.00
3001;DHT22;1510;51.072;6.678;2022-08-30T13:55:24;32.00;1.00
3001;DHT22;1510;51.072;6.678;2022-08-30T13:58:58;32.00;1.00
3001;DHT22;1510;51.072;6.678;2022-08-30T14:00:59;31.90;1.00
3001;DHT22;1510;51.072;6.678;2022-08-30T14:03:26;31.70;1.00
3001;DHT22;1510;51.072;6.678;2022-08-30T14:05:53;32.30;1.00
3001;DHT22;1510;51.072;6.678;2022-08-30T14:08:23;32.50;1.00
3001;DHT22;1510;51.072;6.678;2022-08-30T14:10:53;31.30;1.00
3001;DHT22;1510;51.072;6.678;2022-08-30T14:13:20;31.50;1.00
3001;DHT22;1510;51.072;6.678;2022-08-30T14:15:47;32.10;1.00
3001;DHT22;1510;51.072;6.678;2022-08-30T14:18:14;31.90;1.00
3001;DHT22;1510;51.072;6.678;2022-08-30T14:20:41;31.60;1.00
3001;DHT22;1510;51.072;6.678;2022-08-30T14:23:08;31.40;1.00
3001;DHT22;1510;51.072;6.678;2022-08-30T14:25:38;31.00;1.00
3001;DHT22;1510;51.072;6.678;2022-08-30T14:28:06;31.30;1.00
3001;DHT22;1510;51.072;6.678;2022-08-30T14:30:33;31.90;1.00
3001;DHT22;1510;51.072;6.678;2022-08-30T14:33:00;32.00;1.00
3001;DHT22;1510;51.072;6.678;2022-08-30T14:35:26;31.90;1.00
3001;DHT22;1510;51.072;6.678;2022-08-30T14:37:53;31.10;1.00
3001;DHT22;1510;51.072;6.678;2022-08-30T14:40:20;31.30;1.00
3001;DHT22;1510;51.072;6.678;2022-08-30T14:42:53;30.80;1.00
3001;DHT22;1510;51.072;6.678;2022-08-30T14:45:23;30.90;1.00
3001;DHT22;1510;51.072;6.678;2022-08-30T14:47:50;30.90;1.00
3001;DHT22;1510;51.072;6.678;2022-08-30T14:50:20;31.50;1.00
3001;DHT22;1510;51.072;6.678;2022-08-30T14:52:49;31.10;1.00
3001;DHT22;1510;51.072;6.678;2022-08-30T14:55:19;30.90;1.00
3001;DHT22;1510;51.072;6.678;2022-08-30T14:57:55;30.90;1.00
3001;DHT22;1510;51.072;6.678;2022-08-30T15:00:31;31.00;1.00
3001;DHT22;1510;51.072;6.678;2022-08-30T15:03:05;30.60;1.00
3001;DHT22;1510;51.072;6.678;2022-08-30T15:05:47;31.10;1.00
3001;DHT22;1510;51.072;6.678;2022-08-30T15:08:14;30.20;1.00
3001;DHT22;1510;51.072;6.678;2022-08-30T15:10:42;29.80;1.00
3001;DHT22;1510;51.072;6.678;2022-08-30T15:13:08;29.90;1.00
3001;DHT22;1510;51.072;6.678;2022-08-30T15:15:49;30.20;1.00
3001;DHT22;1510;51.072;6.678;2022-08-30T15:18:15;30.50;1.00
3001;DHT22;1510;51.072;6.678;2022-08-30T15:20:46;30.30;1.00
3001;DHT22;1510;51.072;6.678;2022-08-30T15:23:45;31.30;1.00
3001;DHT22;1510;51.072;6.678;2022-08-30T15:27:00;31.90;1.00
3001;DHT22;1510;51.072;6.678;2022-08-30T15:30:03;31.90;1.00
3001;DHT22;1510;51.072;6.678;2022-08-30T15:33:18;31.70;1.00
3001;DHT22;1510;51.072;6.678;2022-08-30T15:35:59;31.40;1.00
3001;DHT22;1510;51.072;6.678;2022-08-30T15:38:50;30.30;1.00
3001;DHT22;1510;51.072;6.678;2022-08-30T15:44:35;31.10;1.00
3001;DHT22;1510;51.072;6.678;2022-08-30T15:47:06;30.60;1.00
3001;DHT22;1510;51.072;6.678;2022-08-30T15:49:34;30.10;1.00
3001;DHT22;1510;51.072;6.678;2022-08-30T15:52:10;30.30;1.00
3001;DHT22;1510;51.072;6.678;2022-08-30T15:54:50;30.10;1.00
3001;DHT22;1510;51.072;6.678;2022-08-30T15:57:18;29.20;1.00
3001;DHT22;1510;51.072;6.678;2022-08-30T15:59:49;28.90;1.00
3001;DHT22;1510;51.072;6.678;2022-08-30T16:02:19;29.50;1.00
3001;DHT22;1510;51.072;6.678;2022-08-30T16:04:59;29.60;1.00
3001;DHT22;1510;51.072;6.678;2022-08-30T16:07:41;29.90;1.00
3001;DHT22;1510;51.072;6.678;2022-08-30T16:10:13;29.80;1.00
3001;DHT22;1510;51.072;6.678;2022-08-30T16:12:44;29.90;1.00
3001;DHT22;1510;51.072;6.678;2022-08-30T16:15:14;29.40;1.00
3001;DHT22;1510;51.072;6.678;2022-08-30T16:17:51;28.60;1.00
3001;DHT22;1510;51.072;6.678;2022-08-30T16:20:23;28.00;1.00
3001;DHT22;1510;51.072;6.678;2022-08-30T16:22:50;28.00;1.00
3001;DHT22;1510;51.072;6.678;2022-08-30T16:25:17;27.90;1.00
3001;DHT22;1510;51.072;6.678;2022-08-30T16:28:03;28.00;1.00
3001;DHT22;1510;51.072;6.678;2022-08-30T16:30:37;28.50;1.00
3001;DHT22;1510;51.072;6.678;2022-08-30T16:33:07;28.60;1.00
3001;DHT22;1510;51.072;6.678;2022-08-30T16:35:41;28.20;1.00
3001;DHT22;1510;51.072;6.678;2022-08-30T16:38:29;28.10;1.00
3001;DHT22;1510;51.072;6.678;2022-08-30T16:44:16;28.20;1.00
3001;DHT22;1510;51.072;6.678;2022-08-30T16:47:14;27.80;1.00
3001;DHT22;1510;51.072;6.678;2022-08-30T16:52:37;27.20;1.00
3001;DHT22;1510;51.072;6.678;2022-08-30T16:55:07;27.00;1.00
3001;DHT22;1510;51.072;6.678;2022-08-30T16:57:34;26.60;1.00
3001;DHT22;1510;51.072;6.678;2022-08-30T17:00:01;26.10;1.00
3001;DHT22;1510;51.072;6.678;2022-08-30T17:02:30;26.10;1.00
3001;DHT22;1510;51.072;6.678;2022-08-30T17:04:56;25.70;1.00
3001;DHT22;1510;51.072;6.678;2022-08-30T17:07:23;25.60;1.00
3001;DHT22;1510;51.072;6.678;2022-08-30T17:09:51;25.30;1.00
3001;DHT22;1510;51.072;6.678;2022-08-30T17:12:18;25.30;1.00
3001;DHT22;1510;51.072;6.678;2022-08-30T17:14:45;25.00;1.00
3001;DHT22;1510;51.072;6.678;2022-08-30T17:17:11;24.90;1.00
3001;DHT22;1510;51.072;6.678;2022-08-30T17:19:38;24.80;1.00
3001;DHT22;1510;51.072;6.678;2022-08-30T17:22:07;24.70;1.00
3001;DHT22;1510;51.072;6.678;2022-08-30T17:24:34;24.50;1.00
3001;DHT22;1510;51.072;6.678;2022-08-30T17:27:02;24.50;1.00
3001;DHT22;1510;51.072;6.678;2022-08-30T17:29:29;24.40;1.00
3001;DHT22;1510;51.072;6.678;2022-08-30T17:31:56;24.30;1.00
3001;DHT22;1510;51.072;6.678;2022-08-30T17:34:25;24.20;1.00
3001;DHT22;1510;51.072;6.678;2022-08-30T17:36:52;24.20;1.00
3001;DHT22;1510;51.072;6.678;2022-08-30T17:39:21;24.20;1.00
3001;DHT22;1510;51.072;6.678;2022-08-30T17:41:49;23.90;1.00
3001;DHT22;1510;51.072;6.678;2022-08-30T17:44:17;23.90;1.00